Time;durP1;ratioP1;P1;durP2;ratioP2;P2;SDS_P1;SDS_P2;PMS_P1;PMS_P2;Temp;Humidity;BMP_temperature;BMP_pressure;BME280_temperature;BME280_humidity;BME280_pressure;Samples;Min_cycle;Max_cycle;Signal;HPM_P1;HPM_P2
2021/12/21 00:00:34;;;;;;;25.52;12.00;;;;;;;-2.20;100.00;97192.25;4920708;29;20047;-64
2021/12/21 00:02:59;;;;;;;31.52;13.63;;;;;;;-2.16;100.00;97187.13;4922510;29;20048;-64
2021/12/21 00:05:29;;;;;;;24.83;12.52;;;;;;;-2.23;100.00;97186.63;4916188;29;20118;-64
2021/12/21 00:07:57;;;;;;;30.60;12.02;;;;;;;-2.22;100.00;97189.03;4921281;29;20040;-65
2021/12/21 00:10:26;;;;;;;28.02;12.70;;;;;;;-2.25;100.00;97186.09;4915841;29;20056;-67
2021/12/21 00:15:26;;;;;;;31.23;12.77;;;;;;;-2.26;100.00;97187.19;4914796;29;20055;-67
2021/12/21 00:25:11;;;;;;;23.23;11.35;;;;;;;-2.38;100.00;97172.16;4915761;29;20039;-66
2021/12/21 00:27:36;;;;;;;32.13;13.05;;;;;;;-2.30;100.00;97162.78;4922044;29;20544;-65
2021/12/21 00:30:03;;;;;;;29.15;12.57;;;;;;;-2.30;100.00;97168.13;4922329;29;20044;-64
2021/12/21 00:32:28;;;;;;;25.92;11.23;;;;;;;-2.34;100.00;97165.19;4916779;29;20044;-66
2021/12/21 00:34:54;;;;;;;25.10;11.02;;;;;;;-2.39;100.00;97159.84;4922275;29;20062;-64
2021/12/21 00:37:21;;;;;;;28.27;12.15;;;;;;;-2.43;100.00;97163.31;4917128;28;20047;-64
2021/12/21 00:39:47;;;;;;;26.60;11.55;;;;;;;-2.39;100.00;97159.84;4922454;29;20075;-63
2021/12/21 00:42:12;;;;;;;24.05;12.13;;;;;;;-2.46;100.00;97153.16;4916750;29;20489;-65
2021/12/21 00:44:38;;;;;;;32.72;13.10;;;;;;;-2.54;100.00;97149.94;4920268;29;20071;-64
2021/12/21 00:47:04;;;;;;;21.00;10.95;;;;;;;-2.50;100.00;97147.53;4920851;29;20051;-65
2021/12/21 00:49:30;;;;;;;23.75;12.18;;;;;;;-2.47;100.00;97146.97;4925103;29;20047;-63
2021/12/21 00:51:55;;;;;;;25.98;11.75;;;;;;;-2.48;100.00;97148.06;4925668;29;20059;-66
2021/12/21 00:54:21;;;;;;;29.60;11.00;;;;;;;-2.54;100.00;97149.13;4919882;29;20051;-66
2021/12/21 00:56:46;;;;;;;25.25;11.40;;;;;;;-2.57;100.00;97138.97;4925255;29;20047;-63
2021/12/21 00:59:12;;;;;;;25.92;13.20;;;;;;;-2.62;100.00;97150.47;4920808;29;20389;-65
2021/12/21 01:01:40;;;;;;;29.77;11.55;;;;;;;-2.62;100.00;97152.38;4925606;29;20130;-65
2021/12/21 01:04:10;;;;;;;26.63;11.57;;;;;;;-2.67;100.00;97153.16;4919042;29;20096;-63
2021/12/21 01:06:42;;;;;;;25.65;11.13;;;;;;;-2.70;100.00;97151.03;4926189;29;20490;-63
2021/12/21 01:09:18;;;;;;;23.35;10.50;;;;;;;-2.68;100.00;97146.22;4920197;29;20047;-64
2021/12/21 01:11:54;;;;;;;25.10;13.10;;;;;;;-2.71;100.00;97149.41;4921510;29;20051;-63
2021/12/21 01:17:12;;;;;;;25.98;10.88;;;;;;;-2.74;100.00;97142.72;4920345;29;20051;-67
2021/12/21 01:19:43;;;;;;;30.83;11.65;;;;;;;-2.75;100.00;97143.00;4924738;29;20047;-64
2021/12/21 01:22:18;;;;;;;27.52;11.75;;;;;;;-2.80;100.00;97145.69;4901755;29;20051;-64
2021/12/21 01:27:41;;;;;;;30.60;11.60;;;;;;;-2.83;100.00;97140.84;4921147;29;20043;-62
2021/12/21 01:42:39;;;;;;;27.75;12.70;;;;;;;-2.88;100.00;97133.63;4918091;29;20394;-62
2021/12/21 01:50:33;;;;;;;28.60;12.30;;;;;;;-2.91;100.00;97134.94;4926229;29;20592;-66
2021/12/21 01:52:59;;;;;;;34.60;14.65;;;;;;;-2.86;100.00;97142.19;4925357;29;20209;-62
2021/12/21 01:55:24;;;;;;;30.80;13.55;;;;;;;-2.88;100.00;97139.00;4916855;29;20621;-63
2021/12/21 01:57:50;;;;;;;29.60;13.82;;;;;;;-2.92;100.00;97141.41;4923545;29;20493;-65
2021/12/21 02:00:16;;;;;;;26.35;13.00;;;;;;;-3.01;100.00;97134.94;4919444;29;20054;-63
2021/12/21 02:02:42;;;;;;;38.55;17.30;;;;;;;-3.07;100.00;97136.81;4921788;29;20043;-63
2021/12/21 02:05:08;;;;;;;36.10;14.07;;;;;;;-3.01;100.00;97131.47;4919101;29;20391;-64
2021/12/21 02:07:33;;;;;;;28.30;13.30;;;;;;;-3.08;100.00;97132.56;4924366;29;20045;-63
2021/12/21 02:09:59;;;;;;;25.73;12.30;;;;;;;-3.11;100.00;97138.44;4923451;29;20139;-65
2021/12/21 02:12:24;;;;;;;26.50;12.70;;;;;;;-3.11;100.00;97143.00;4918490;29;20044;-65
2021/12/21 02:14:57;;;;;;;32.92;13.95;;;;;;;-3.17;100.00;97141.38;4922838;29;20062;-62
2021/12/21 02:20:20;;;;;;;33.20;14.32;;;;;;;-3.20;100.00;97134.69;4921489;29;20112;-64
2021/12/21 02:22:54;;;;;;;30.50;13.32;;;;;;;-3.21;100.00;97138.44;4927432;29;20051;-64
2021/12/21 02:28:10;;;;;;;27.48;14.25;;;;;;;-3.30;100.00;97127.44;4925639;29;20051;-65
2021/12/21 02:30:38;;;;;;;33.30;13.45;;;;;;;-3.31;100.00;97131.19;4923584;29;20078;-65
2021/12/21 02:33:04;;;;;;;32.10;15.63;;;;;;;-3.32;100.00;97129.56;4920027;29;20481;-66
2021/12/21 02:35:30;;;;;;;32.58;13.20;;;;;;;-3.39;100.00;97122.88;4926510;29;20114;-66
2021/12/21 02:37:55;;;;;;;31.65;13.52;;;;;;;-3.44;100.00;97129.03;4929951;29;20043;-63
2021/12/21 02:40:20;;;;;;;34.88;13.55;;;;;;;-3.47;100.00;97124.22;4924730;29;20051;-65
2021/12/21 02:42:46;;;;;;;32.50;15.00;;;;;;;-3.44;100.00;97117.50;4926108;29;20490;-65
2021/12/21 02:45:11;;;;;;;32.58;14.90;;;;;;;-3.50;100.00;97111.34;4923818;29;20071;-65
2021/12/21 02:47:37;;;;;;;30.63;15.02;;;;;;;-3.59;100.00;97108.38;4925319;29;20638;-64
2021/12/21 02:50:04;;;;;;;33.40;15.52;;;;;;;-3.58;100.00;97107.31;4920089;29;20079;-67
2021/12/21 02:52:30;;;;;;;38.88;17.05;;;;;;;-3.61;100.00;97110.53;4920299;29;20051;-65
2021/12/21 02:54:55;;;;;;;30.83;14.55;;;;;;;-3.63;100.00;97117.22;4922026;29;20043;-65
2021/12/21 02:57:21;;;;;;;37.78;17.60;;;;;;;-3.62;100.00;97113.47;4918429;29;20051;-66
2021/12/21 02:59:46;;;;;;;41.13;16.08;;;;;;;-3.64;100.00;97113.72;4921651;29;20516;-64
2021/12/21 03:02:12;;;;;;;33.45;15.10;;;;;;;-3.62;100.00;97116.94;4918295;29;20126;-65
2021/12/21 03:04:41;;;;;;;33.63;16.20;;;;;;;-3.62;100.00;97119.63;4926296;29;20131;-64
2021/12/21 03:07:35;;;;;;;;;;;;;;;-3.67;100.00;97115.06;4918329;29;20044;-66
2021/12/21 03:09:57;;;;;;;33.67;14.27;;;;;;;-3.67;100.00;97117.75;4923781;29;19922;-64
2021/12/21 03:14:49;;;;;;;35.00;16.10;;;;;;;-3.72;100.00;97107.03;4922355;29;20040;-64
2021/12/21 03:17:16;;;;;;;34.70;15.82;;;;;;;-3.71;100.00;97105.13;4914761;29;20838;-64
2021/12/21 03:19:42;;;;;;;38.70;16.30;;;;;;;-3.71;100.00;97102.47;4921889;29;20126;-67
2021/12/21 03:22:09;;;;;;;36.47;17.33;;;;;;;-3.76;100.00;97100.59;4912327;29;20229;-62
2021/12/21 03:24:35;;;;;;;41.80;16.92;;;;;;;-3.73;100.00;97101.94;4922869;29;20458;-64
2021/12/21 03:27:02;;;;;;;37.58;16.58;;;;;;;-3.70;100.00;97104.88;4922804;29;20047;-66
2021/12/21 03:29:28;;;;;;;37.92;17.00;;;;;;;-3.65;100.00;97104.91;4919426;29;20040;-66
2021/12/21 03:31:54;;;;;;;34.80;16.38;;;;;;;-3.74;100.00;97113.72;4920114;29;20051;-66
2021/12/21 03:34:20;;;;;;;33.08;16.33;;;;;;;-3.70;100.00;97112.91;4918707;29;20043;-65
2021/12/21 03:36:46;;;;;;;43.08;16.67;;;;;;;-3.80;100.00;97112.88;4922382;29;20054;-66
2021/12/21 03:39:19;;;;;;;36.83;17.50;;;;;;;-3.70;100.00;97114.78;4919138;29;20040;-64
2021/12/21 03:41:57;;;;;;;35.47;15.70;;;;;;;-3.72;100.00;97111.59;4917468;29;20080;-64
2021/12/21 03:44:24;;;;;;;39.67;16.50;;;;;;;-3.78;100.00;97115.28;4912272;29;20448;-62
2021/12/21 03:46:53;;;;;;;46.10;17.30;;;;;;;-3.80;100.00;97112.88;4923069;29;20050;-65
2021/12/21 03:52:09;;;;;;;39.97;16.83;;;;;;;-3.76;100.00;97116.66;4919038;29;20119;-64
2021/12/21 03:54:36;;;;;;;42.58;17.45;;;;;;;-3.78;100.00;97116.13;4922407;29;20722;-61
2021/12/21 03:57:02;;;;;;;36.33;17.15;;;;;;;-3.77;100.00;97114.25;4923327;29;20058;-64
2021/12/21 03:59:28;;;;;;;37.47;18.42;;;;;;;-3.84;100.00;97117.94;4928074;29;20044;-64
2021/12/21 04:01:54;;;;;;;38.58;18.98;;;;;;;-3.81;100.00;97113.16;4921495;29;20091;-64
2021/12/21 04:04:22;;;;;;;38.42;17.25;;;;;;;-3.81;100.00;97116.63;4917366;29;20521;-65
2021/12/21 04:06:47;;;;;;;40.67;16.50;;;;;;;-3.86;100.00;97121.97;4920463;29;20138;-67
2021/12/21 04:09:13;;;;;;;41.00;17.55;;;;;;;-3.89;100.00;97119.81;4915825;29;20127;-67
2021/12/21 04:11:39;;;;;;;38.58;17.27;;;;;;;-3.90;100.00;97123.56;4920901;29;20083;-67
2021/12/21 04:14:05;;;;;;;42.33;18.83;;;;;;;-3.96;100.00;97122.75;4918541;29;20127;-68
2021/12/21 04:16:31;;;;;;;39.05;17.13;;;;;;;-3.96;100.00;97124.59;4921199;29;20047;-68
2021/12/21 04:18:56;;;;;;;49.53;20.15;;;;;;;-3.92;100.00;97117.69;4923218;29;20073;-63
2021/12/21 04:21:22;;;;;;;38.70;18.65;;;;;;;-3.96;100.00;97132.63;4917153;28;20081;-66
2021/12/21 04:23:47;;;;;;;43.95;18.63;;;;;;;-3.97;100.00;97134.50;4923167;29;20051;-66
2021/12/21 04:26:14;;;;;;;43.47;17.40;;;;;;;-4.03;100.00;97131.03;4918984;29;20160;-65
2021/12/21 04:28:41;;;;;;;47.28;17.70;;;;;;;-3.94;100.00;97125.97;4926079;29;20094;-66
2021/12/21 04:31:10;;;;;;;41.05;18.15;;;;;;;-3.98;100.00;97135.59;4920792;29;20115;-65
2021/12/21 04:33:36;;;;;;;44.65;18.63;;;;;;;-4.00;100.00;97136.91;4924728;29;20047;-66
2021/12/21 04:36:03;;;;;;;38.95;19.10;;;;;;;-4.03;100.00;97133.69;4924752;29;20039;-65
2021/12/21 04:38:33;;;;;;;42.88;19.58;;;;;;;-4.02;100.00;97131.81;4921600;29;20051;-66
2021/12/21 04:41:07;;;;;;;43.70;18.60;;;;;;;-3.94;100.00;97141.22;4926572;29;20043;-64
2021/12/21 04:43:32;;;;;;;47.40;19.20;;;;;;;-4.01;100.00;97143.34;4924188;29;20040;-63
2021/12/21 04:45:59;;;;;;;45.45;19.55;;;;;;;-4.02;100.00;97147.88;4926076;29;20126;-64
2021/12/21 04:48:25;;;;;;;44.97;18.83;;;;;;;-3.97;100.00;97136.41;4920718;29;20050;-65
2021/12/21 04:50:51;;;;;;;43.28;18.75;;;;;;;-4.06;100.00;97131.53;4921905;29;20039;-64
2021/12/21 04:53:16;;;;;;;41.05;18.58;;;;;;;-4.09;100.00;97137.44;4903723;29;20573;-64
2021/12/21 04:55:42;;;;;;;44.72;18.98;;;;;;;-4.11;100.00;97142.22;4926195;29;20086;-66
2021/12/21 04:58:09;;;;;;;48.00;19.33;;;;;;;-4.08;100.00;97131.00;4916303;29;20083;-64
2021/12/21 05:00:35;;;;;;;47.45;20.98;;;;;;;-4.08;100.00;97144.38;4926341;29;20053;-67
2021/12/21 05:03:01;;;;;;;46.88;18.33;;;;;;;-4.11;100.00;97136.84;4922617;29;20050;-63
2021/12/21 05:05:26;;;;;;;45.35;20.15;;;;;;;-4.16;100.00;97134.19;4919597;29;20400;-65
2021/12/21 05:08:05;;;;;;;47.85;18.88;;;;;;;-4.12;100.00;97135.28;4926175;29;20124;-63
2021/12/21 05:10:32;;;;;;;44.80;19.67;;;;;;;-4.14;100.00;97128.56;4923996;29;20079;-65
2021/12/21 05:12:57;;;;;;;49.08;19.17;;;;;;;-4.14;100.00;97139.25;4925917;29;20048;-64
2021/12/21 05:15:23;;;;;;;51.35;20.27;;;;;;;-4.10;100.00;97140.38;4923367;29;20048;-65
2021/12/21 05:17:48;;;;;;;47.13;19.70;;;;;;;-4.09;100.00;97136.59;4920849;29;20059;-67
2021/12/21 05:20:14;;;;;;;50.08;21.48;;;;;;;-4.15;100.00;97138.47;4926274;29;20043;-68
2021/12/21 05:22:39;;;;;;;47.22;21.73;;;;;;;-4.06;100.00;97141.44;4924178;29;20052;-66
2021/12/21 05:25:05;;;;;;;50.05;20.05;;;;;;;-4.09;100.00;97136.59;4919295;29;20043;-67
2021/12/21 05:27:31;;;;;;;51.50;20.35;;;;;;;-4.11;100.00;97136.06;4923245;29;20043;-66
2021/12/21 05:29:57;;;;;;;50.67;19.85;;;;;;;-4.06;100.00;97133.41;4925731;29;20062;-66
2021/12/21 05:32:23;;;;;;;48.28;20.08;;;;;;;-4.14;100.00;97140.09;4918654;29;20622;-62
2021/12/21 05:34:48;;;;;;;46.58;19.75;;;;;;;-4.08;100.00;97143.56;4924257;29;20043;-66
2021/12/21 05:37:14;;;;;;;48.35;20.33;;;;;;;-4.07;100.00;97146.00;4918532;29;20051;-65
2021/12/21 05:40:08;;;;;;;53.65;19.40;;;;;;;-4.11;100.00;97144.88;4925476;29;20082;-65
2021/12/21 05:42:27;;;;;;;48.03;19.00;;;;;;;-4.03;100.00;97146.28;4921309;29;20043;-66
2021/12/21 05:44:53;;;;;;;49.70;19.92;;;;;;;-3.85;100.00;97147.69;4922538;29;20043;-66
2021/12/21 05:47:18;;;;;;;45.50;19.65;;;;;;;-3.98;100.00;97138.28;4925961;29;20078;-66
2021/12/21 05:49:44;;;;;;;47.38;19.48;;;;;;;-4.04;100.00;97148.13;4929518;29;20710;-64
2021/12/21 05:52:10;;;;;;;44.83;18.67;;;;;;;-4.12;100.00;97148.66;4905806;29;20043;-66
2021/12/21 05:54:35;;;;;;;47.22;20.27;;;;;;;-4.14;100.00;97147.28;4909681;29;20107;-66
2021/12/21 05:57:02;;;;;;;47.55;19.13;;;;;;;-4.20;100.00;97159.81;4925079;29;20621;-66
2021/12/21 05:59:27;;;;;;;49.67;19.58;;;;;;;-4.13;100.00;97160.41;4920787;29;20052;-65
2021/12/21 06:01:53;;;;;;;46.00;19.60;;;;;;;-4.06;100.00;97157.50;4924546;29;20048;-66
2021/12/21 06:04:19;;;;;;;46.90;19.65;;;;;;;-4.10;100.00;97156.41;4918783;29;20055;-64
2021/12/21 06:06:47;;;;;;;49.05;19.23;;;;;;;-4.10;100.00;97164.44;4923351;29;20036;-65
2021/12/21 06:09:14;;;;;;;51.55;21.52;;;;;;;-4.11;100.00;97158.25;4917672;29;20044;-66
2021/12/21 06:11:48;;;;;;;51.33;20.42;;;;;;;-4.09;100.00;97166.84;4924169;29;20512;-66
2021/12/21 06:23:21;;;;;;;48.85;20.25;;;;;;;-4.08;100.00;97173.00;4922170;29;20591;-65
2021/12/21 06:26:08;;;;;;;52.95;21.13;;;;;;;-4.05;100.00;97181.31;4921776;29;20142;-64
2021/12/21 06:28:33;;;;;;;52.17;18.50;;;;;;;-3.99;100.00;97179.47;4922580;29;20063;-65
2021/12/21 06:30:59;;;;;;;62.85;29.17;;;;;;;-3.87;100.00;97179.22;4925847;29;20099;-63
2021/12/21 06:33:26;;;;;;;56.28;22.95;;;;;;;-3.86;100.00;97184.31;4919341;29;20498;-66
2021/12/21 06:35:51;;;;;;;46.30;21.35;;;;;;;-3.71;100.00;97183.59;4922591;29;20064;-67
2021/12/21 06:38:18;;;;;;;49.75;20.73;;;;;;;-3.45;100.00;97183.66;4919828;29;20050;-66
2021/12/21 06:40:43;;;;;;;41.08;18.67;;;;;;;-3.23;100.00;97179.97;4925800;29;20124;-67
2021/12/21 06:43:13;;;;;;;38.80;18.35;;;;;;;-3.28;100.00;97184.25;4926574;29;20067;-66
2021/12/21 06:53:33;;;;;;;48.80;20.02;;;;;;;-3.55;100.00;97179.06;4927237;29;20075;-67
2021/12/21 06:55:58;;;;;;;38.50;18.58;;;;;;;-3.61;100.00;97185.50;4924426;29;20075;-63
2021/12/21 06:58:24;;;;;;;49.20;18.90;;;;;;;-3.52;100.00;97186.59;4919741;29;20240;-64
2021/12/21 07:00:52;;;;;;;38.08;16.58;;;;;;;-3.51;100.00;97182.84;4928183;29;20040;-64
2021/12/21 07:03:19;;;;;;;44.15;17.35;;;;;;;-3.47;100.00;97191.97;4919608;29;20044;-67
2021/12/21 07:05:46;;;;;;;45.67;21.20;;;;;;;-3.56;100.00;97182.84;4920072;29;20558;-64
2021/12/21 07:08:16;;;;;;;42.65;19.33;;;;;;;-3.48;100.00;97186.88;4914883;29;20099;-65
2021/12/21 07:10:50;;;;;;;40.50;21.10;;;;;;;-3.43;100.00;97192.25;4922888;29;20071;-66
2021/12/21 07:18:43;;;;;;;42.35;16.88;;;;;;;-3.40;100.00;97189.03;4924395;29;20058;-66
2021/12/21 07:21:09;;;;;;;38.53;17.75;;;;;;;-3.35;100.00;97183.69;4915954;28;20043;-65
2021/12/21 07:23:34;;;;;;;39.05;17.02;;;;;;;-3.29;100.00;97189.88;4923677;29;20078;-65
2021/12/21 07:26:00;;;;;;;43.42;19.90;;;;;;;-3.29;100.00;97185.31;4923936;29;20047;-64
2021/12/21 07:28:25;;;;;;;42.60;17.50;;;;;;;-3.29;100.00;97188.00;4917059;29;20134;-66
2021/12/21 07:30:50;;;;;;;37.83;17.45;;;;;;;-3.29;100.00;97198.69;4923282;29;20130;-64
2021/12/21 07:33:16;;;;;;;36.28;16.48;;;;;;;-3.22;100.00;97187.75;4919644;29;20067;-67
2021/12/21 07:35:43;;;;;;;38.97;15.63;;;;;;;-3.22;100.00;97195.78;4921513;29;20051;-66
2021/12/21 07:38:10;;;;;;;36.72;16.60;;;;;;;-3.25;100.00;97177.53;4917066;29;20382;-67
2021/12/21 07:40:36;;;;;;;39.72;17.10;;;;;;;-3.23;100.00;97186.13;4924470;29;20063;-66
2021/12/21 07:43:02;;;;;;;33.40;15.57;;;;;;;-3.24;100.00;97189.88;4920588;29;20067;-68
2021/12/21 07:45:28;;;;;;;40.03;15.52;;;;;;;-2.96;100.00;97190.44;4919471;29;20051;-66
2021/12/21 07:47:53;;;;;;;35.13;15.15;;;;;;;-2.91;100.00;97187.78;4924067;29;20389;-65
2021/12/21 07:50:20;;;;;;;35.50;16.17;;;;;;;-2.94;100.00;97186.41;4918816;29;20044;-65
2021/12/21 07:52:45;;;;;;;39.65;16.38;;;;;;;-2.95;100.00;97195.53;4922281;29;20052;-67
2021/12/21 07:55:11;;;;;;;38.63;16.15;;;;;;;-2.89;100.00;97191.78;4915956;29;20495;-66
2021/12/21 07:57:37;;;;;;;36.35;16.98;;;;;;;-2.80;100.00;97186.69;4923920;29;20070;-66
2021/12/21 08:00:07;;;;;;;32.90;15.18;;;;;;;-2.88;100.00;97187.25;4925137;29;20051;-67
2021/12/21 08:02:33;;;;;;;41.95;17.55;;;;;;;-2.90;100.00;97187.50;4927692;29;20043;-66
2021/12/21 08:04:59;;;;;;;35.50;16.20;;;;;;;-2.99;100.00;97196.31;4929586;29;20047;-65
2021/12/21 08:07:32;;;;;;;36.13;16.25;;;;;;;-2.87;100.00;97191.50;4923109;29;20409;-64
2021/12/21 08:09:58;;;;;;;35.05;15.13;;;;;;;-2.91;100.00;97193.94;4926536;29;20126;-66
2021/12/21 08:12:24;;;;;;;29.25;14.10;;;;;;;-2.78;100.00;97199.84;4921788;29;20493;-64
2021/12/21 08:14:51;;;;;;;37.20;14.95;;;;;;;-2.88;100.00;97201.44;4927367;29;20047;-67
2021/12/21 08:17:19;;;;;;;36.00;16.80;;;;;;;-2.83;100.00;97208.66;4921315;29;20047;-67
2021/12/21 08:19:45;;;;;;;40.63;17.83;;;;;;;-2.69;100.00;97214.31;4927257;29;20039;-65
2021/12/21 08:22:12;;;;;;;36.05;14.82;;;;;;;-2.37;100.00;97214.03;4920118;29;20040;-64
2021/12/21 08:24:39;;;;;;;54.03;27.00;;;;;;;-2.33;100.00;97216.97;4925694;29;20150;-66
2021/12/21 08:27:04;;;;;;;36.95;15.95;;;;;;;-2.44;100.00;97215.38;4919325;29;20079;-69
2021/12/21 08:29:31;;;;;;;31.55;14.43;;;;;;;-2.44;100.00;97220.75;4924705;29;20111;-66
2021/12/21 08:31:56;;;;;;;33.60;15.65;;;;;;;-2.58;100.00;97215.09;4927691;29;20043;-66
2021/12/21 08:34:22;;;;;;;30.52;16.20;;;;;;;-2.56;100.00;97221.00;4925991;29;20490;-65
2021/12/21 08:36:48;;;;;;;38.85;15.82;;;;;;;-2.28;100.00;97216.16;4937342;29;20115;-66
2021/12/21 08:39:16;;;;;;;30.98;14.05;;;;;;;-2.24;100.00;97217.22;4922563;29;20043;-65
2021/12/21 08:41:43;;;;;;;32.15;15.52;;;;;;;-2.37;100.00;97226.63;4919660;29;20127;-64
2021/12/21 08:44:11;;;;;;;33.42;15.40;;;;;;;-2.49;100.00;97221.53;4921659;29;20043;-65
2021/12/21 08:46:38;;;;;;;39.13;15.75;;;;;;;-2.53;100.00;97217.78;4925454;29;20510;-66
2021/12/21 08:49:04;;;;;;;28.48;13.75;;;;;;;-2.70;100.00;97215.41;4923182;29;20054;-67
2021/12/21 08:51:35;;;;;;;35.28;16.73;;;;;;;-2.76;100.00;97208.41;4925534;29;20044;-64
2021/12/21 08:54:01;;;;;;;35.35;15.45;;;;;;;-2.69;100.00;97214.31;4907013;29;20064;-67
2021/12/21 08:56:29;;;;;;;37.47;15.07;;;;;;;-2.47;100.00;97215.91;4915720;29;20058;-67
2021/12/21 08:58:55;;;;;;;35.03;15.65;;;;;;;-2.63;100.00;97217.78;4925425;29;20036;-66
2021/12/21 09:01:20;;;;;;;33.85;15.35;;;;;;;-2.72;100.00;97214.84;4918629;29;20447;-66
2021/12/21 09:03:46;;;;;;;34.25;14.80;;;;;;;-2.72;100.00;97212.97;4925264;29;20040;-67
2021/12/21 09:06:12;;;;;;;32.75;16.33;;;;;;;-2.79;100.00;97212.44;4918443;29;20508;-66
2021/12/21 09:08:37;;;;;;;34.40;15.63;;;;;;;-2.53;100.00;97209.75;4924715;29;20056;-67
2021/12/21 09:11:05;;;;;;;33.28;15.77;;;;;;;-2.71;100.00;97206.53;4923804;29;20083;-70
2021/12/21 09:13:32;;;;;;;33.05;15.70;;;;;;;-2.87;100.00;97218.31;4925894;29;20059;-66
2021/12/21 09:15:57;;;;;;;33.50;14.10;;;;;;;-2.85;100.00;97221.53;4923794;29;20059;-66
2021/12/21 09:18:23;;;;;;;34.80;13.85;;;;;;;-2.77;100.00;97217.53;4920581;29;20828;-67
2021/12/21 09:20:48;;;;;;;31.23;15.32;;;;;;;-2.80;100.00;97218.06;4925904;29;20569;-63
2021/12/21 09:23:14;;;;;;;33.85;15.35;;;;;;;-2.81;100.00;97224.50;4917150;29;20053;-66
2021/12/21 09:25:40;;;;;;;34.08;15.23;;;;;;;-2.88;100.00;97217.53;4920921;29;20055;-68
2021/12/21 09:28:05;;;;;;;32.30;15.25;;;;;;;-2.86;100.00;97222.63;4919782;29;20071;-65
2021/12/21 09:30:31;;;;;;;30.85;15.02;;;;;;;-2.64;100.00;97217.00;4922947;29;20044;-66
2021/12/21 09:32:57;;;;;;;33.97;16.00;;;;;;;-2.59;100.00;97219.69;4925199;29;20040;-66
2021/12/21 09:35:23;;;;;;;31.25;15.68;;;;;;;-2.67;100.00;97216.72;4918379;29;20139;-64
2021/12/21 09:37:50;;;;;;;30.10;14.85;;;;;;;-2.64;100.00;97217.00;4922734;29;20135;-67
2021/12/21 09:40:19;;;;;;;34.53;14.95;;;;;;;-2.33;100.00;97211.59;4910155;29;20115;-66
2021/12/21 09:42:45;;;;;;;31.05;14.98;;;;;;;-2.43;100.00;97222.34;4925366;29;20643;-67
2021/12/21 09:45:11;;;;;;;35.00;15.13;;;;;;;-2.14;100.00;97217.22;4920041;29;20683;-67
2021/12/21 09:47:37;;;;;;;30.48;13.20;;;;;;;-2.30;99.92;97219.13;4919795;29;20083;-67
2021/12/21 09:50:05;;;;;;;31.58;14.73;;;;;;;-2.20;100.00;97218.28;4923637;29;20052;-69
2021/12/21 09:52:32;;;;;;;30.25;14.38;;;;;;;-2.54;100.00;97218.84;4924592;29;20139;-63
2021/12/21 09:55:04;;;;;;;30.00;14.95;;;;;;;-2.45;100.00;97219.13;4925064;29;20103;-66
2021/12/21 09:57:29;;;;;;;31.00;14.18;;;;;;;-2.33;100.00;97217.75;4922703;29;20046;-65
2021/12/21 09:59:55;;;;;;;29.08;13.45;;;;;;;-2.11;100.00;97224.69;4924856;29;20059;-63
2021/12/21 10:02:26;;;;;;;33.05;13.57;;;;;;;-1.85;97.92;97216.59;4916837;29;20047;-65
2021/12/21 10:04:58;;;;;;;29.92;13.35;;;;;;;-1.51;96.53;97208.69;4904845;29;20044;-69
2021/12/21 10:07:25;;;;;;;33.55;14.70;;;;;;;-1.40;94.89;97212.91;4910474;28;20569;-67
2021/12/21 10:10:01;;;;;;;27.77;13.98;;;;;;;-1.55;96.62;97208.44;4923330;29;20127;-66
2021/12/21 10:12:35;;;;;;;24.63;11.25;;;;;;;-1.45;92.91;97206.78;4918150;29;20111;-68
2021/12/21 10:15:04;;;;;;;22.77;12.05;;;;;;;-1.52;94.50;97212.44;4922451;29;20450;-67
2021/12/21 10:17:32;;;;;;;29.33;13.57;;;;;;;-1.92;96.15;97206.16;4922786;29;20059;-67
2021/12/21 10:20:00;;;;;;;29.88;12.55;;;;;;;-1.58;95.98;97205.50;4924047;29;20554;-66
2021/12/21 10:22:25;;;;;;;26.88;12.63;;;;;;;-1.57;94.23;97201.72;4913827;29;20068;-66
2021/12/21 10:24:52;;;;;;;26.92;13.40;;;;;;;-1.73;96.49;97185.69;4924428;29;20165;-66
2021/12/21 10:27:20;;;;;;;28.60;12.73;;;;;;;-1.65;96.08;97196.94;4917886;29;20044;-65
2021/12/21 10:29:49;;;;;;;29.88;13.55;;;;;;;-1.66;95.63;97201.47;4923216;29;20040;-64
2021/12/21 10:32:18;;;;;;;29.45;13.52;;;;;;;-1.23;94.25;97201.00;4918371;29;20043;-66
2021/12/21 10:34:54;;;;;;;;;;;;;;;-1.71;95.78;97200.69;4924441;29;20475;-66
2021/12/21 10:37:27;;;;;;;30.00;13.85;;;;;;;-1.81;97.72;97198.88;4911307;29;19922;-65
2021/12/21 10:40:08;;;;;;;28.92;12.57;;;;;;;-1.48;93.89;97197.38;4924139;29;20071;-66
2021/12/21 10:42:52;;;;;;;27.48;12.05;;;;;;;-1.75;94.93;97195.06;4921663;29;20071;-62
2021/12/21 10:45:23;;;;;;;32.53;14.82;;;;;;;-1.59;94.77;97193.91;4917940;29;20063;-68
2021/12/21 10:47:50;;;;;;;27.02;13.02;;;;;;;-1.77;94.24;97187.28;4933001;29;20283;-65
2021/12/21 10:50:15;;;;;;;28.35;13.57;;;;;;;-1.29;92.97;97186.78;4900270;29;20395;-65
2021/12/21 10:52:52;;;;;;;25.05;12.63;;;;;;;-1.40;90.66;97196.78;4911427;29;20040;-64
2021/12/21 10:55:32;;;;;;;28.73;13.20;;;;;;;-1.40;92.68;97190.63;4902941;29;20044;-65
2021/12/21 10:58:07;;;;;;;26.30;11.77;;;;;;;-1.62;93.15;97180.25;4911302;29;20047;-65
2021/12/21 11:00:35;;;;;;;25.65;13.43;;;;;;;-2.07;96.33;97182.03;4925544;29;20054;-64
2021/12/21 11:03:00;;;;;;;27.52;12.18;;;;;;;-2.05;95.07;97174.50;4922744;29;20039;-65
2021/12/21 11:05:26;;;;;;;27.27;12.85;;;;;;;-1.98;93.81;97175.00;4916415;29;20055;-66
2021/12/21 11:08:00;;;;;;;26.70;11.98;;;;;;;-2.23;95.35;97171.34;4922543;29;20135;-65
2021/12/21 11:10:30;;;;;;;26.40;13.00;;;;;;;-2.38;96.83;97182.09;4917024;29;20162;-65
2021/12/21 11:13:08;;;;;;;26.75;13.55;;;;;;;-2.31;96.31;97178.03;4923252;29;20409;-65
2021/12/21 11:15:52;;;;;;;27.13;12.68;;;;;;;-1.86;95.69;97183.56;4919923;29;20060;-63
2021/12/21 11:18:19;;;;;;;29.40;13.15;;;;;;;-1.36;92.70;97178.22;4915170;29;20043;-65
2021/12/21 11:20:48;;;;;;;30.20;14.55;;;;;;;-1.47;91.16;97180.19;4924401;29;20051;-65
2021/12/21 11:23:15;;;;;;;26.95;13.18;;;;;;;-1.58;92.64;97179.44;4922077;29;20130;-64
2021/12/21 11:25:43;;;;;;;28.75;14.32;;;;;;;-2.23;95.51;97174.03;4923915;29;20048;-62
2021/12/21 11:28:14;;;;;;;36.90;15.93;;;;;;;-2.34;96.72;97167.06;4920960;29;20367;-66
2021/12/21 11:30:41;;;;;;;29.33;13.60;;;;;;;-2.21;97.11;97155.78;4924943;29;20087;-65
2021/12/21 11:33:07;;;;;;;26.50;12.18;;;;;;;-1.97;94.92;97158.63;4921716;29;20044;-64
2021/12/21 11:38:02;;;;;;;25.42;13.63;;;;;;;-1.87;92.11;97155.13;4926347;29;20114;-64
2021/12/21 11:40:30;;;;;;;29.95;14.50;;;;;;;-1.79;92.25;97157.22;4918861;29;20052;-64
2021/12/21 11:43:17;;;;;;;27.40;13.02;;;;;;;-2.09;93.56;97149.28;4928072;29;20138;-64
2021/12/21 11:45:48;;;;;;;29.13;14.80;;;;;;;-2.16;94.03;97145.03;4926911;29;20521;-64
2021/12/21 11:48:14;;;;;;;31.95;14.20;;;;;;;-2.02;93.88;97145.22;4923754;29;20055;-64
2021/12/21 11:50:46;;;;;;;25.50;13.23;;;;;;;-2.09;92.92;97149.28;4928767;29;20040;-65
2021/12/21 11:53:14;;;;;;;29.77;13.48;;;;;;;-2.00;92.71;97150.31;4918213;29;20043;-65
2021/12/21 11:55:43;;;;;;;27.92;14.02;;;;;;;-2.25;93.66;97149.34;4923570;29;20047;-65
2021/12/21 11:58:28;;;;;;;32.07;11.77;;;;;;;-2.08;94.24;97143.66;4919096;29;20051;-63
2021/12/21 12:01:04;;;;;;;29.15;14.35;;;;;;;-2.02;92.88;97144.44;4924587;29;20044;-66
2021/12/21 12:03:33;;;;;;;29.65;14.07;;;;;;;-2.16;93.09;97138.84;4921884;29;20103;-64
2021/12/21 12:06:13;;;;;;;29.17;13.07;;;;;;;-1.45;91.65;97140.41;4919745;29;20040;-65
2021/12/21 12:08:43;;;;;;;33.03;13.55;;;;;;;-1.01;89.53;97144.13;4929971;29;20302;-65
2021/12/21 12:11:19;;;;;;;32.38;15.52;;;;;;;-1.50;90.92;97145.00;4919694;29;20063;-65
2021/12/21 12:13:45;;;;;;;35.65;15.55;;;;;;;-1.24;88.76;97148.31;4921994;29;20078;-64
2021/12/21 12:16:12;;;;;;;71.28;25.67;;;;;;;-1.35;88.90;97144.91;4917985;29;20107;-65
2021/12/21 12:18:50;;;;;;;37.97;16.35;;;;;;;-1.18;87.24;97144.53;4924209;29;20512;-64
2021/12/21 12:21:18;;;;;;;31.98;14.43;;;;;;;-1.19;87.66;97146.44;4915229;29;20050;-65
2021/12/21 12:23:53;;;;;;;38.35;15.65;;;;;;;-0.78;86.91;97131.84;4923107;29;20047;-64